createdAt,value
2018-03-26T00:00:45.875Z,17.70
2018-03-26T00:01:50.891Z,17.70
2018-03-26T00:02:56.063Z,17.70
2018-03-26T00:04:01.167Z,17.70
2018-03-26T00:05:06.181Z,17.70
2018-03-26T00:06:11.206Z,17.70
2018-03-26T00:07:16.175Z,17.70
2018-03-26T00:08:21.317Z,17.70
2018-03-26T00:09:26.489Z,17.70
2018-03-26T00:10:31.510Z,17.60
2018-03-26T00:11:36.640Z,17.70
2018-03-26T00:12:41.695Z,17.70
2018-03-26T00:13:46.786Z,17.70
2018-03-26T00:14:51.810Z,17.70
2018-03-26T00:15:56.818Z,17.70
2018-03-26T00:17:01.878Z,17.70
2018-03-26T00:18:06.915Z,17.70
2018-03-26T00:19:11.874Z,17.70
2018-03-26T00:20:16.985Z,17.70
2018-03-26T00:21:22.045Z,17.70
2018-03-26T00:22:27.129Z,17.70
2018-03-26T00:23:32.210Z,17.60
2018-03-26T00:24:37.307Z,17.60
2018-03-26T00:25:42.253Z,17.60
2018-03-26T00:26:47.387Z,17.60
2018-03-26T00:27:52.506Z,17.60
2018-03-26T00:28:57.673Z,17.60
2018-03-26T00:30:02.775Z,17.60
2018-03-26T00:31:07.793Z,17.60
2018-03-26T00:32:12.769Z,17.60
2018-03-26T00:33:17.770Z,17.60
2018-03-26T00:34:22.855Z,17.60
2018-03-26T00:35:28.004Z,17.60
2018-03-26T00:36:33.108Z,17.60
2018-03-26T00:37:38.143Z,17.60
2018-03-26T00:38:43.197Z,17.60
2018-03-26T00:39:48.264Z,17.60
2018-03-26T00:40:53.349Z,17.60
2018-03-26T00:41:58.476Z,17.60
2018-03-26T00:43:03.532Z,17.60
2018-03-26T00:44:08.539Z,17.60
2018-03-26T00:45:13.642Z,17.60
2018-03-26T00:46:18.789Z,17.60
2018-03-26T00:47:23.902Z,17.60
2018-03-26T00:48:28.926Z,17.60
2018-03-26T00:49:33.989Z,17.60
2018-03-26T00:50:38.999Z,17.60
2018-03-26T00:51:44.048Z,17.60
2018-03-26T00:52:49.137Z,17.60
2018-03-26T00:53:54.156Z,17.60
2018-03-26T00:54:59.083Z,17.60
2018-03-26T00:56:04.074Z,17.60
2018-03-26T00:57:09.172Z,17.60
2018-03-26T00:58:14.129Z,17.50
2018-03-26T00:59:19.107Z,17.50
2018-03-26T01:00:24.092Z,17.60
2018-03-26T01:01:29.096Z,17.60
2018-03-26T01:02:34.254Z,17.50
2018-03-26T01:03:39.306Z,17.50
2018-03-26T01:04:44.374Z,17.50
2018-03-26T01:05:49.471Z,17.50
2018-03-26T01:06:54.508Z,17.60
2018-03-26T01:07:59.478Z,17.50
2018-03-26T01:09:04.581Z,17.50
2018-03-26T01:10:09.619Z,17.50
2018-03-26T01:11:14.650Z,17.50
2018-03-26T01:12:19.596Z,17.50
2018-03-26T01:13:24.639Z,17.50
2018-03-26T01:14:29.567Z,17.50
2018-03-26T01:15:34.724Z,17.50
2018-03-26T01:16:39.860Z,17.50
2018-03-26T01:17:45.037Z,17.50
2018-03-26T01:18:50.235Z,17.50
2018-03-26T01:19:55.239Z,17.50
2018-03-26T01:21:00.387Z,17.50
2018-03-26T01:22:05.517Z,17.50
2018-03-26T01:23:10.713Z,17.50
2018-03-26T01:24:15.842Z,17.50
2018-03-26T01:25:20.833Z,17.50
2018-03-26T01:26:25.914Z,17.50
2018-03-26T01:27:31.060Z,17.50
2018-03-26T01:28:36.039Z,17.50
2018-03-26T01:29:41.092Z,17.50
2018-03-26T01:30:46.057Z,17.50
2018-03-26T01:31:51.157Z,17.50
2018-03-26T01:32:56.033Z,17.50
2018-03-26T01:34:01.011Z,17.50
2018-03-26T01:35:06.093Z,17.50
2018-03-26T01:36:10.995Z,17.50
2018-03-26T01:37:15.943Z,17.50
2018-03-26T01:38:20.930Z,17.50
2018-03-26T01:39:25.975Z,17.50
2018-03-26T01:40:30.885Z,17.50
2018-03-26T01:41:36.060Z,17.50
2018-03-26T01:42:41.220Z,17.50
2018-03-26T01:43:46.220Z,17.40
2018-03-26T01:44:51.354Z,17.50
2018-03-26T01:45:56.445Z,17.40
2018-03-26T01:47:01.504Z,17.50
2018-03-26T01:48:06.598Z,17.50
2018-03-26T01:49:11.622Z,17.50
2018-03-26T01:50:16.734Z,17.50
2018-03-26T01:51:21.777Z,17.40
2018-03-26T01:52:26.814Z,17.40
2018-03-26T01:53:31.879Z,17.40
2018-03-26T01:54:37.006Z,17.40
2018-03-26T01:55:42.047Z,17.40
2018-03-26T01:56:47.117Z,17.40
2018-03-26T01:57:52.317Z,17.40
2018-03-26T01:58:57.541Z,17.40
2018-03-26T02:00:02.659Z,17.40
2018-03-26T02:01:07.791Z,17.40
2018-03-26T02:02:12.911Z,17.40
2018-03-26T02:03:17.928Z,17.40
2018-03-26T02:04:23.047Z,17.40
2018-03-26T02:05:28.169Z,17.40
2018-03-26T02:06:33.304Z,17.40
2018-03-26T02:07:38.479Z,17.40
2018-03-26T02:08:43.686Z,17.40
2018-03-26T02:09:48.802Z,17.40
2018-03-26T02:10:53.813Z,17.40
2018-03-26T02:11:58.867Z,17.40
2018-03-26T02:13:03.960Z,17.40
2018-03-26T02:14:08.961Z,17.40
2018-03-26T02:15:13.958Z,17.40
2018-03-26T02:16:19.054Z,17.40
2018-03-26T02:17:24.164Z,17.40
2018-03-26T02:18:29.455Z,17.40
2018-03-26T02:19:34.552Z,17.40
2018-03-26T02:20:39.649Z,17.40
2018-03-26T02:21:44.669Z,17.40
2018-03-26T02:22:49.712Z,17.40
2018-03-26T02:23:54.802Z,17.40
2018-03-26T02:24:59.952Z,17.40
2018-03-26T02:26:05.065Z,17.40
2018-03-26T02:27:10.053Z,17.40
2018-03-26T02:28:15.099Z,17.40
2018-03-26T02:29:20.074Z,17.40
2018-03-26T02:30:25.090Z,17.40
2018-03-26T02:31:30.238Z,17.40
2018-03-26T02:32:35.345Z,17.40
2018-03-26T02:33:40.297Z,17.40
2018-03-26T02:34:45.419Z,17.40
2018-03-26T02:35:50.531Z,17.40
2018-03-26T02:36:55.603Z,17.40
2018-03-26T02:38:00.601Z,17.40
2018-03-26T02:39:05.742Z,17.30
2018-03-26T02:40:10.927Z,17.30
2018-03-26T02:41:15.936Z,17.40
2018-03-26T02:42:21.082Z,17.40
2018-03-26T02:43:26.247Z,17.40
2018-03-26T02:44:31.344Z,17.40
2018-03-26T02:45:36.352Z,17.40
2018-03-26T02:46:41.463Z,17.40
2018-03-26T02:47:46.535Z,17.40
2018-03-26T02:48:51.700Z,17.40
2018-03-26T02:49:56.758Z,17.40
2018-03-26T02:51:01.947Z,17.40
2018-03-26T02:52:07.201Z,17.40
2018-03-26T02:53:12.387Z,17.40
2018-03-26T02:54:17.504Z,17.40
2018-03-26T02:55:22.644Z,17.30
2018-03-26T02:56:27.769Z,17.40
2018-03-26T02:57:32.963Z,17.40
2018-03-26T02:58:38.125Z,17.40
2018-03-26T02:59:43.236Z,17.40
2018-03-26T03:00:48.506Z,17.40
2018-03-26T03:01:53.697Z,17.40
2018-03-26T03:02:58.824Z,17.40
2018-03-26T03:04:03.984Z,17.40
2018-03-26T03:05:09.077Z,17.40
2018-03-26T03:06:14.075Z,17.40
2018-03-26T03:07:19.174Z,17.40
2018-03-26T03:08:24.336Z,17.40
2018-03-26T03:09:29.467Z,17.40
2018-03-26T03:10:34.646Z,17.40
2018-03-26T03:11:39.723Z,17.40
2018-03-26T03:12:44.849Z,17.40
2018-03-26T03:13:50.009Z,17.30
2018-03-26T03:14:55.169Z,17.30
2018-03-26T03:16:00.436Z,17.30
2018-03-26T03:17:05.583Z,17.30
2018-03-26T03:18:10.683Z,17.30
2018-03-26T03:19:15.779Z,17.30
2018-03-26T03:20:23.471Z,17.30
2018-03-26T03:21:28.638Z,17.30
2018-03-26T03:22:33.877Z,17.30
2018-03-26T03:23:38.883Z,17.30
2018-03-26T03:24:44.065Z,17.30
2018-03-26T03:25:49.168Z,17.30
2018-03-26T03:26:54.113Z,17.30
2018-03-26T03:27:59.360Z,17.30
2018-03-26T03:29:04.489Z,17.30
2018-03-26T03:30:09.644Z,17.30
2018-03-26T03:31:14.720Z,17.30
2018-03-26T03:32:19.765Z,17.30
2018-03-26T03:33:24.865Z,17.30
2018-03-26T03:34:29.951Z,17.30
2018-03-26T03:35:35.073Z,17.30
2018-03-26T03:36:40.140Z,17.30
2018-03-26T03:37:45.241Z,17.30
2018-03-26T03:38:50.256Z,17.30
2018-03-26T03:39:55.368Z,17.30
2018-03-26T03:41:00.358Z,17.30
2018-03-26T03:42:05.410Z,17.30
2018-03-26T03:43:10.527Z,17.30
2018-03-26T03:44:15.638Z,17.30
2018-03-26T03:45:20.693Z,17.30
2018-03-26T03:46:25.817Z,17.30
2018-03-26T03:47:31.001Z,17.30
2018-03-26T03:48:36.227Z,17.30
2018-03-26T03:49:41.419Z,17.30
2018-03-26T03:50:46.562Z,17.30
2018-03-26T03:51:51.816Z,17.30
2018-03-26T03:52:56.987Z,17.30
2018-03-26T03:54:02.046Z,17.30
2018-03-26T03:55:07.210Z,17.30
2018-03-26T03:56:12.354Z,17.30
2018-03-26T03:57:17.392Z,17.30
2018-03-26T03:58:22.539Z,17.30
2018-03-26T03:59:27.531Z,17.30
2018-03-26T04:00:32.738Z,17.30
2018-03-26T04:01:37.893Z,17.30
2018-03-26T04:02:42.930Z,17.30
2018-03-26T04:03:47.935Z,17.30
2018-03-26T04:04:53.111Z,17.30
2018-03-26T04:05:58.189Z,17.30
2018-03-26T04:07:03.347Z,17.30
2018-03-26T04:08:08.405Z,17.30
2018-03-26T04:09:13.486Z,17.30
2018-03-26T04:10:18.558Z,17.30
2018-03-26T04:11:23.744Z,17.30
2018-03-26T04:12:28.933Z,17.30
2018-03-26T04:13:34.081Z,17.20
2018-03-26T04:14:39.236Z,17.30
2018-03-26T04:15:44.248Z,17.30
2018-03-26T04:16:49.286Z,17.30
2018-03-26T04:17:54.531Z,17.30
2018-03-26T04:18:59.464Z,17.30
2018-03-26T04:20:04.552Z,17.30
2018-03-26T04:21:09.649Z,17.30
2018-03-26T04:22:14.860Z,17.30
2018-03-26T04:23:19.932Z,17.30
2018-03-26T04:24:25.029Z,17.30
2018-03-26T04:25:30.201Z,17.30
2018-03-26T04:26:35.390Z,17.30
2018-03-26T04:27:40.545Z,17.30
2018-03-26T04:28:45.616Z,17.30
2018-03-26T04:29:50.746Z,17.30
2018-03-26T04:30:55.910Z,17.30
2018-03-26T04:32:01.254Z,17.30
2018-03-26T04:33:06.306Z,17.30
2018-03-26T04:34:11.535Z,17.30
2018-03-26T04:35:16.658Z,17.30
2018-03-26T04:36:21.760Z,17.30
2018-03-26T04:37:26.822Z,17.30
2018-03-26T04:38:31.942Z,17.30
2018-03-26T04:39:37.026Z,17.30
2018-03-26T04:40:42.053Z,17.30
2018-03-26T04:41:47.220Z,17.30
2018-03-26T04:42:52.440Z,17.30
2018-03-26T04:43:57.512Z,17.30
2018-03-26T04:45:02.523Z,17.30
2018-03-26T04:46:07.665Z,17.30
2018-03-26T04:47:12.813Z,17.30
2018-03-26T04:48:17.849Z,17.30
2018-03-26T04:49:23.152Z,17.30
2018-03-26T04:50:28.469Z,17.30
2018-03-26T04:51:33.490Z,17.30
2018-03-26T04:52:38.606Z,17.30
2018-03-26T04:53:43.645Z,17.30
2018-03-26T04:54:48.787Z,17.30
2018-03-26T04:55:53.916Z,17.30
2018-03-26T04:56:59.229Z,17.30
2018-03-26T04:58:04.609Z,17.30
2018-03-26T04:59:09.783Z,17.30
2018-03-26T05:00:14.938Z,17.20
2018-03-26T05:01:20.021Z,17.20
2018-03-26T05:02:25.232Z,17.20
2018-03-26T05:03:30.410Z,17.20
2018-03-26T05:04:35.696Z,17.20
2018-03-26T05:05:40.929Z,17.20
2018-03-26T05:06:46.032Z,17.20
2018-03-26T05:07:51.183Z,17.20
2018-03-26T05:08:56.428Z,17.20
2018-03-26T05:10:01.633Z,17.20
2018-03-26T05:11:06.807Z,17.20
2018-03-26T05:12:11.993Z,17.20
2018-03-26T05:13:17.076Z,17.20
2018-03-26T05:14:23.131Z,17.20
2018-03-26T05:15:28.204Z,17.20
2018-03-26T05:16:33.422Z,17.20
2018-03-26T05:17:38.529Z,17.20
2018-03-26T05:18:43.641Z,17.20
2018-03-26T05:19:48.832Z,17.20
2018-03-26T05:20:53.808Z,17.20
2018-03-26T05:21:59.000Z,17.20
2018-03-26T05:23:04.156Z,17.20
2018-03-26T05:24:09.197Z,17.30
2018-03-26T05:25:14.348Z,17.30
2018-03-26T05:26:20.209Z,17.20
2018-03-26T05:27:25.790Z,17.10
2018-03-26T05:28:30.852Z,17.10
2018-03-26T05:29:36.097Z,17.10
2018-03-26T05:30:41.138Z,17.10
2018-03-26T05:31:46.299Z,17.10
2018-03-26T05:32:51.479Z,17.10
2018-03-26T05:33:56.632Z,17.10
2018-03-26T05:35:01.655Z,17.10
2018-03-26T05:36:06.846Z,17.10
2018-03-26T05:37:12.009Z,17.10
2018-03-26T05:38:17.224Z,17.20
2018-03-26T05:39:22.576Z,17.20
2018-03-26T05:40:27.667Z,17.20
2018-03-26T05:41:32.849Z,17.30
2018-03-26T05:42:37.888Z,17.40
2018-03-26T05:43:42.917Z,17.40
2018-03-26T05:44:47.980Z,17.50
2018-03-26T05:45:52.961Z,17.50
2018-03-26T05:46:58.035Z,17.60
2018-03-26T05:48:03.240Z,17.70
2018-03-26T05:49:08.339Z,17.70
2018-03-26T05:50:14.138Z,17.80
2018-03-26T05:51:19.198Z,17.90
2018-03-26T05:52:24.172Z,18.00
2018-03-26T05:53:29.374Z,18.10
2018-03-26T05:54:34.589Z,18.20
2018-03-26T05:55:39.804Z,18.30
2018-03-26T05:56:45.082Z,18.30
2018-03-26T05:57:50.279Z,18.40
2018-03-26T05:58:55.492Z,18.50
2018-03-26T06:00:00.692Z,18.60
2018-03-26T06:01:05.917Z,18.60
2018-03-26T06:02:11.225Z,18.70
2018-03-26T06:03:16.448Z,18.70
2018-03-26T06:04:21.602Z,18.80
2018-03-26T06:05:26.765Z,18.80
2018-03-26T06:06:31.944Z,18.80
2018-03-26T06:07:37.189Z,18.90
2018-03-26T06:08:42.351Z,19.00
2018-03-26T06:09:47.476Z,19.00
2018-03-26T06:10:52.636Z,19.00
2018-03-26T06:11:57.780Z,19.00
2018-03-26T06:13:03.024Z,19.10
2018-03-26T06:14:08.223Z,19.10
2018-03-26T06:15:13.434Z,19.10
2018-03-26T06:16:18.929Z,19.20
2018-03-26T06:17:24.101Z,19.20
2018-03-26T06:18:29.156Z,19.20
2018-03-26T06:19:34.299Z,19.20
2018-03-26T06:20:39.667Z,19.20
2018-03-26T06:21:44.801Z,19.20
2018-03-26T06:22:49.929Z,19.20
2018-03-26T06:23:55.151Z,19.20
2018-03-26T06:25:00.243Z,19.20
2018-03-26T06:26:05.281Z,19.20
2018-03-26T06:27:10.363Z,19.20
2018-03-26T06:28:15.282Z,19.20
2018-03-26T06:29:21.298Z,19.20
2018-03-26T06:30:26.770Z,19.20
2018-03-26T06:31:31.773Z,19.20
2018-03-26T06:32:37.570Z,19.20
2018-03-26T06:33:42.719Z,19.20
2018-03-26T06:34:47.902Z,19.20
2018-03-26T06:35:53.014Z,19.10
2018-03-26T06:36:58.121Z,19.20
2018-03-26T06:38:03.258Z,19.20
2018-03-26T06:39:08.263Z,19.10
2018-03-26T06:40:13.284Z,19.10
2018-03-26T06:41:18.327Z,19.10
2018-03-26T06:42:23.773Z,19.10
2018-03-26T06:43:28.849Z,19.10
2018-03-26T06:44:33.956Z,19.10
2018-03-26T06:45:38.946Z,19.10
2018-03-26T06:46:43.946Z,19.10
2018-03-26T06:47:49.105Z,19.00
2018-03-26T06:48:54.260Z,19.00
2018-03-26T06:49:59.354Z,19.00
2018-03-26T06:51:04.579Z,19.00
2018-03-26T06:52:09.664Z,19.00
2018-03-26T06:53:14.855Z,18.90
2018-03-26T06:54:19.989Z,18.90
2018-03-26T06:55:25.110Z,18.90
2018-03-26T06:56:30.348Z,18.90
2018-03-26T06:57:35.439Z,18.90
2018-03-26T06:58:40.616Z,18.90
2018-03-26T06:59:45.710Z,18.90
2018-03-26T07:00:50.892Z,18.90
2018-03-26T07:01:55.998Z,18.90
2018-03-26T07:03:01.012Z,18.80
2018-03-26T07:04:06.120Z,18.80
2018-03-26T07:05:11.193Z,18.80
2018-03-26T07:06:16.375Z,18.80
2018-03-26T07:07:21.458Z,18.80
2018-03-26T07:08:26.585Z,18.80
2018-03-26T07:09:31.714Z,18.80
2018-03-26T07:10:36.902Z,18.80
2018-03-26T07:11:42.228Z,18.70
2018-03-26T07:12:47.315Z,18.70
2018-03-26T07:13:52.404Z,18.70
2018-03-26T07:14:57.540Z,18.70
2018-03-26T07:16:02.723Z,18.70
2018-03-26T07:17:07.878Z,18.70
2018-03-26T07:18:13.659Z,18.70
2018-03-26T07:19:18.803Z,18.60
2018-03-26T07:20:24.068Z,18.60
2018-03-26T07:21:29.089Z,18.60
2018-03-26T07:22:34.366Z,18.60
2018-03-26T07:23:39.626Z,18.60
2018-03-26T07:24:44.714Z,18.60
2018-03-26T07:25:49.775Z,18.60
2018-03-26T07:26:55.006Z,18.60
2018-03-26T07:28:00.184Z,18.60
2018-03-26T07:29:05.440Z,18.60
2018-03-26T07:30:10.706Z,18.60
2018-03-26T07:31:15.864Z,18.60
2018-03-26T07:32:20.982Z,18.60
2018-03-26T07:33:26.086Z,18.50
2018-03-26T07:34:31.237Z,18.50
2018-03-26T07:35:36.298Z,18.50
2018-03-26T07:36:41.388Z,18.50
2018-03-26T07:37:46.446Z,18.50
2018-03-26T07:38:51.520Z,18.50
2018-03-26T07:39:56.418Z,18.50
2018-03-26T07:41:01.754Z,18.50
2018-03-26T07:42:06.747Z,18.50
2018-03-26T07:43:11.810Z,18.50
2018-03-26T07:44:17.003Z,18.50
2018-03-26T07:45:25.050Z,18.50
2018-03-26T07:46:30.145Z,18.40
2018-03-26T07:47:35.367Z,18.30
2018-03-26T07:48:40.359Z,18.00
2018-03-26T07:49:45.384Z,17.80
2018-03-26T07:50:50.444Z,17.70
2018-03-26T07:51:55.608Z,17.60
2018-03-26T07:53:00.630Z,17.50
2018-03-26T07:54:06.547Z,17.50
2018-03-26T07:55:11.691Z,17.40
2018-03-26T07:56:16.810Z,17.30
2018-03-26T07:57:22.046Z,17.20
2018-03-26T07:58:27.238Z,17.10
2018-03-26T07:59:33.030Z,17.00
2018-03-26T08:00:37.986Z,17.00
2018-03-26T08:01:43.440Z,17.10
2018-03-26T08:02:48.580Z,17.10
2018-03-26T08:03:53.708Z,17.20
2018-03-26T08:04:59.188Z,17.20
2018-03-26T08:06:04.332Z,17.30
2018-03-26T08:07:09.453Z,17.30
2018-03-26T08:08:14.549Z,17.30
2018-03-26T08:09:19.702Z,17.40
2018-03-26T08:10:24.868Z,17.40
2018-03-26T08:11:30.090Z,17.40
2018-03-26T08:12:35.163Z,17.40
2018-03-26T08:13:40.270Z,17.40
2018-03-26T08:14:45.553Z,17.40
2018-03-26T08:15:50.726Z,17.40
2018-03-26T08:16:55.965Z,17.50
2018-03-26T08:18:00.995Z,17.50
2018-03-26T08:19:06.204Z,17.50
2018-03-26T08:20:11.383Z,17.50
2018-03-26T08:21:16.471Z,17.50
2018-03-26T08:22:21.367Z,17.50
2018-03-26T08:23:26.473Z,17.50
2018-03-26T08:24:31.508Z,17.50
2018-03-26T08:25:36.563Z,17.50
2018-03-26T08:26:41.591Z,17.60
2018-03-26T08:27:46.619Z,17.60
2018-03-26T08:28:51.560Z,17.50
2018-03-26T08:29:56.506Z,17.60
2018-03-26T08:31:01.652Z,17.60
2018-03-26T08:32:06.711Z,17.60
2018-03-26T08:33:11.692Z,17.60
2018-03-26T08:34:16.762Z,17.60
2018-03-26T08:35:21.750Z,17.60
2018-03-26T08:36:26.860Z,17.60
2018-03-26T08:37:31.813Z,17.60
2018-03-26T08:38:37.412Z,17.60
2018-03-26T08:39:42.565Z,17.60
2018-03-26T08:40:47.686Z,17.60
2018-03-26T08:41:52.728Z,17.60
2018-03-26T08:42:57.837Z,17.60
2018-03-26T08:44:02.945Z,17.60
2018-03-26T08:45:07.957Z,17.60
2018-03-26T08:46:13.098Z,17.60
2018-03-26T08:47:18.134Z,17.60
2018-03-26T08:48:23.079Z,17.60
2018-03-26T08:49:28.022Z,17.60
2018-03-26T08:50:32.957Z,17.60
2018-03-26T08:51:38.138Z,17.60
2018-03-26T08:52:43.193Z,17.60
2018-03-26T08:53:48.322Z,17.60
2018-03-26T08:54:53.364Z,17.60
2018-03-26T08:55:58.436Z,17.60
2018-03-26T08:57:03.618Z,17.60
2018-03-26T08:58:08.658Z,17.50
2018-03-26T08:59:13.647Z,17.50
2018-03-26T09:00:18.703Z,17.50
2018-03-26T09:01:23.791Z,17.50
2018-03-26T09:02:28.883Z,17.50
2018-03-26T09:03:34.087Z,17.50
2018-03-26T09:04:39.168Z,17.50
2018-03-26T09:05:44.216Z,17.50
2018-03-26T09:06:49.201Z,17.50
2018-03-26T09:07:54.344Z,17.50
2018-03-26T09:08:59.380Z,17.50
2018-03-26T09:10:04.461Z,17.50
2018-03-26T09:11:09.435Z,17.50
2018-03-26T09:12:14.427Z,17.50
2018-03-26T09:13:19.501Z,17.50
2018-03-26T09:14:24.590Z,17.50
2018-03-26T09:15:29.615Z,17.50
2018-03-26T09:16:35.316Z,17.50
2018-03-26T09:17:40.496Z,17.50
2018-03-26T09:18:45.496Z,17.50
2018-03-26T09:19:50.435Z,17.50
2018-03-26T09:20:55.344Z,17.50
2018-03-26T09:22:00.346Z,17.50
2018-03-26T09:23:05.381Z,17.50
2018-03-26T09:24:10.430Z,17.50
2018-03-26T09:25:15.469Z,17.50
2018-03-26T09:26:20.579Z,17.50
2018-03-26T09:27:25.620Z,17.50
2018-03-26T09:28:30.748Z,17.50
2018-03-26T09:29:35.841Z,17.50
2018-03-26T09:30:40.944Z,17.40
2018-03-26T09:31:45.915Z,17.40
2018-03-26T09:32:51.043Z,17.50
2018-03-26T09:33:56.128Z,17.50
2018-03-26T09:35:01.232Z,17.50
2018-03-26T09:36:06.315Z,17.40
2018-03-26T09:37:12.209Z,17.50
2018-03-26T09:38:17.332Z,17.50
2018-03-26T09:39:22.429Z,17.50
2018-03-26T09:40:27.361Z,17.50
2018-03-26T09:41:32.437Z,17.50
2018-03-26T09:42:37.601Z,17.50
2018-03-26T09:43:42.584Z,17.50
2018-03-26T09:44:47.598Z,17.50
2018-03-26T09:45:52.648Z,17.50
2018-03-26T09:46:57.663Z,17.50
2018-03-26T09:48:02.795Z,17.50
2018-03-26T09:49:07.897Z,17.50
2018-03-26T09:50:12.980Z,17.50
2018-03-26T09:51:18.081Z,17.50
2018-03-26T09:52:23.087Z,17.50
2018-03-26T09:53:28.208Z,17.50
2018-03-26T09:54:33.181Z,17.50
2018-03-26T09:55:38.232Z,17.50
2018-03-26T09:56:43.156Z,17.50
2018-03-26T09:57:48.069Z,17.40
2018-03-26T09:58:53.150Z,17.50
2018-03-26T09:59:58.254Z,17.50
2018-03-26T10:01:03.393Z,17.50
2018-03-26T10:02:08.387Z,17.50
2018-03-26T10:03:13.484Z,17.40
2018-03-26T10:04:18.555Z,17.40
2018-03-26T10:05:23.596Z,17.40
2018-03-26T10:06:28.620Z,17.40
2018-03-26T10:07:33.668Z,17.40
2018-03-26T10:08:38.853Z,17.40
2018-03-26T10:09:43.933Z,17.40
2018-03-26T10:10:49.087Z,17.40
2018-03-26T10:11:54.145Z,17.40
2018-03-26T10:12:59.327Z,17.40
2018-03-26T10:14:04.351Z,17.30
2018-03-26T10:15:09.410Z,17.30
2018-03-26T10:16:14.378Z,17.30
2018-03-26T10:17:19.417Z,17.30
2018-03-26T10:18:24.502Z,17.30
2018-03-26T10:19:29.606Z,17.30
2018-03-26T10:20:34.755Z,17.30
2018-03-26T10:21:40.023Z,17.30
2018-03-26T10:22:45.090Z,17.30
2018-03-26T10:23:50.083Z,17.30
2018-03-26T10:24:55.181Z,17.30
2018-03-26T10:26:00.189Z,17.30
2018-03-26T10:27:05.333Z,17.30
2018-03-26T10:28:10.422Z,17.30
2018-03-26T10:29:15.466Z,17.30
2018-03-26T10:30:20.554Z,17.30
2018-03-26T10:31:25.594Z,17.30
2018-03-26T10:32:30.587Z,17.30
2018-03-26T10:33:35.672Z,17.30
2018-03-26T10:34:40.621Z,17.30
2018-03-26T10:35:45.592Z,17.30
2018-03-26T10:36:50.569Z,17.30
2018-03-26T10:37:55.681Z,17.20
2018-03-26T10:39:00.739Z,17.20
2018-03-26T10:40:05.690Z,17.20
2018-03-26T10:41:10.744Z,17.20
2018-03-26T10:42:15.791Z,17.20
2018-03-26T10:43:20.803Z,17.20
2018-03-26T10:44:25.827Z,17.20
2018-03-26T10:45:30.841Z,17.20
2018-03-26T10:46:35.899Z,17.20
2018-03-26T10:47:40.916Z,17.20
2018-03-26T10:48:46.018Z,17.20
2018-03-26T10:49:51.102Z,17.20
2018-03-26T10:50:56.058Z,17.20
2018-03-26T10:52:01.242Z,17.20
2018-03-26T10:54:22.670Z,17.20
2018-03-26T10:55:27.547Z,17.20
2018-03-26T10:56:33.095Z,17.20
2018-03-26T10:57:38.046Z,17.20
2018-03-26T10:58:43.159Z,17.20
2018-03-26T10:59:48.080Z,17.20
2018-03-26T11:00:52.898Z,17.20
2018-03-26T11:01:57.947Z,17.20
2018-03-26T11:03:02.896Z,17.20
2018-03-26T11:04:07.985Z,17.20
2018-03-26T11:05:13.050Z,17.10
2018-03-26T11:06:18.048Z,17.10
2018-03-26T11:07:23.024Z,17.10
2018-03-26T11:08:28.022Z,17.10
2018-03-26T11:09:33.158Z,17.10
2018-03-26T11:10:38.311Z,17.10
2018-03-26T11:11:43.335Z,17.10
2018-03-26T11:12:48.465Z,17.10
2018-03-26T11:13:53.387Z,17.10
2018-03-26T11:14:58.292Z,17.10
2018-03-26T11:16:03.232Z,17.10
2018-03-26T11:17:08.292Z,17.10
2018-03-26T11:18:13.220Z,17.10
2018-03-26T11:19:18.189Z,17.10
2018-03-26T11:20:23.252Z,17.10
2018-03-26T11:21:28.223Z,17.10
2018-03-26T11:22:33.291Z,17.10
2018-03-26T11:23:38.521Z,17.10
2018-03-26T11:24:43.618Z,17.10
2018-03-26T11:25:48.790Z,17.10
2018-03-26T11:26:53.813Z,17.10
2018-03-26T11:27:58.953Z,17.10
2018-03-26T11:29:03.893Z,17.10
2018-03-26T11:30:08.992Z,17.10
2018-03-26T11:31:14.328Z,17.10
2018-03-26T11:32:19.404Z,17.10
2018-03-26T11:33:24.567Z,17.10
2018-03-26T11:34:29.823Z,17.10
2018-03-26T11:35:34.929Z,17.10
2018-03-26T11:36:40.251Z,17.10
2018-03-26T11:37:45.480Z,17.10
2018-03-26T11:38:50.483Z,17.10
2018-03-26T11:39:55.368Z,17.10
2018-03-26T11:41:00.370Z,17.10
2018-03-26T11:42:05.402Z,17.10
2018-03-26T11:43:10.573Z,17.10
2018-03-26T11:44:15.606Z,17.10
2018-03-26T11:45:20.689Z,17.00
2018-03-26T11:46:25.662Z,17.10
2018-03-26T11:47:30.770Z,17.00
2018-03-26T11:48:35.957Z,17.00
2018-03-26T11:49:41.074Z,17.00
2018-03-26T11:50:45.981Z,17.00
2018-03-26T11:51:50.971Z,17.00
2018-03-26T11:52:56.018Z,17.00
2018-03-26T11:54:00.976Z,17.00
2018-03-26T11:55:06.089Z,17.10
2018-03-26T11:56:11.162Z,17.00
2018-03-26T11:57:16.018Z,17.00
2018-03-26T11:58:21.087Z,17.00
2018-03-26T11:59:26.346Z,17.00
2018-03-26T12:00:31.373Z,17.00
2018-03-26T12:01:36.464Z,17.00
2018-03-26T12:02:41.465Z,17.00
2018-03-26T12:03:46.473Z,17.00
2018-03-26T12:04:52.684Z,17.00
2018-03-26T12:05:57.644Z,17.00
2018-03-26T12:07:02.974Z,17.00
2018-03-26T12:08:07.910Z,17.00
2018-03-26T12:09:13.022Z,17.00
2018-03-26T12:10:19.074Z,17.00
2018-03-26T12:11:24.116Z,17.00
2018-03-26T12:12:29.017Z,17.00
2018-03-26T12:13:33.997Z,17.00
2018-03-26T12:14:39.143Z,17.00
2018-03-26T12:15:44.046Z,17.00
2018-03-26T12:16:48.970Z,17.00
2018-03-26T12:17:54.202Z,17.00
2018-03-26T12:18:59.329Z,17.00
2018-03-26T12:20:04.373Z,17.00
2018-03-26T12:21:09.407Z,17.00
2018-03-26T12:22:14.505Z,17.00
2018-03-26T12:23:19.631Z,17.00
2018-03-26T12:24:24.765Z,17.00
2018-03-26T12:25:29.813Z,17.00
2018-03-26T12:26:34.805Z,17.00
2018-03-26T12:27:39.955Z,17.00
2018-03-26T12:28:45.163Z,17.00
2018-03-26T12:29:50.312Z,17.00
2018-03-26T12:30:55.412Z,17.00
2018-03-26T12:32:00.403Z,17.00
2018-03-26T12:33:05.508Z,17.00
2018-03-26T12:34:10.694Z,17.00
2018-03-26T12:35:15.627Z,17.00
2018-03-26T12:36:20.551Z,17.00
2018-03-26T12:37:25.605Z,17.00
2018-03-26T12:38:30.557Z,17.00
2018-03-26T12:39:35.650Z,17.00
2018-03-26T12:40:40.826Z,17.00
2018-03-26T12:41:45.716Z,17.00
2018-03-26T12:42:50.607Z,17.00
2018-03-26T12:43:55.636Z,17.00
2018-03-26T12:45:00.631Z,16.90
2018-03-26T12:46:05.699Z,17.00
2018-03-26T12:47:10.637Z,17.00
2018-03-26T12:48:15.635Z,17.00
2018-03-26T12:49:20.823Z,17.00
2018-03-26T12:50:26.566Z,17.00
2018-03-26T12:51:31.588Z,17.00
2018-03-26T12:52:36.628Z,17.00
2018-03-26T12:53:41.702Z,17.00
2018-03-26T12:54:46.890Z,17.10
2018-03-26T12:55:52.075Z,17.10
2018-03-26T12:56:57.130Z,17.10
2018-03-26T12:58:02.109Z,17.10
2018-03-26T12:59:07.848Z,17.10
2018-03-26T13:00:12.730Z,17.10
2018-03-26T13:01:17.639Z,17.10
2018-03-26T13:02:22.796Z,17.10
2018-03-26T13:03:27.764Z,17.10
2018-03-26T13:04:32.853Z,17.10
2018-03-26T13:05:37.835Z,17.10
2018-03-26T13:06:45.731Z,17.10
2018-03-26T13:07:50.730Z,17.10
2018-03-26T13:08:55.537Z,17.10
2018-03-26T13:10:00.583Z,17.10
2018-03-26T13:11:05.621Z,17.10
2018-03-26T13:12:10.639Z,17.10
2018-03-26T13:13:15.426Z,17.10
2018-03-26T13:14:20.592Z,17.10
2018-03-26T13:15:25.842Z,17.10
2018-03-26T13:16:30.933Z,17.10
2018-03-26T13:17:36.139Z,17.10
2018-03-26T13:18:41.386Z,17.10
2018-03-26T13:19:46.507Z,17.10
2018-03-26T13:20:51.529Z,17.10
2018-03-26T13:21:56.556Z,17.10
2018-03-26T13:23:01.884Z,17.10
2018-03-26T13:24:07.000Z,17.00
2018-03-26T13:25:12.111Z,17.00
2018-03-26T13:26:17.415Z,17.00
2018-03-26T13:27:22.747Z,17.00
2018-03-26T13:28:27.902Z,17.00
2018-03-26T13:29:33.196Z,17.00
2018-03-26T13:30:38.490Z,17.00
2018-03-26T13:31:43.675Z,17.00
2018-03-26T13:32:48.959Z,17.00
2018-03-26T13:33:54.134Z,17.00
2018-03-26T13:34:59.261Z,17.00
2018-03-26T13:36:04.508Z,17.00
2018-03-26T13:37:09.802Z,17.00
2018-03-26T13:38:14.880Z,17.00
2018-03-26T13:39:20.137Z,17.00
2018-03-26T13:40:25.252Z,17.00
2018-03-26T13:41:30.305Z,17.00
2018-03-26T13:42:35.449Z,17.00
2018-03-26T13:43:40.441Z,17.00
2018-03-26T13:44:45.403Z,17.00
2018-03-26T13:45:50.243Z,17.00
2018-03-26T13:46:55.239Z,17.00
2018-03-26T13:48:00.235Z,17.00
2018-03-26T13:49:05.460Z,17.00
2018-03-26T13:50:10.578Z,17.00
2018-03-26T13:51:15.509Z,17.00
2018-03-26T13:52:20.547Z,17.00
2018-03-26T13:53:26.369Z,17.10
2018-03-26T13:54:31.453Z,17.10
2018-03-26T13:55:36.458Z,17.10
2018-03-26T13:56:41.533Z,17.20
2018-03-26T13:57:46.384Z,17.30
2018-03-26T13:58:51.265Z,17.40
2018-03-26T13:59:56.771Z,17.40